EW7574 Orleans MA US current weather conditions

sailwx.info

Wind from 067 at 6 knots gusting 9

Air temperature 9.4° C
Dewpoint 4.0° C

Last reported at 2020-Oct-25 20:01 UTC.
Time now 2020-Oct-26 03:43 UTC

Location: N 41°47' W 069°59'.
View on Google Maps.

See reports from other nearby stations

  
Tides and Currents Weather Stations Pressure Air Temp Water Temp Dewpoint Dewpoint Depression Visibility Wind Speed Wind Dir Waves Ship Positions
date/time (UTC)wind fromknots sea level pressurealtimeterstation pressurevisibilityair tempwater tempwave heightnotes
2020-Oct-25 20:01 067 6 gusting 9 9.4
2020-Oct-25 18:00
2020-Oct-25 17:01 088 7 10.6
2020-Oct-25 16:00
2020-Oct-25 15:00 045 7 10.6
2020-Oct-25 14:01
2020-Oct-25 13:02
2020-Oct-25 12:02
2020-Oct-25 11:00 034 9 gusting 13 10.0
2020-Oct-25 10:00
2020-Oct-25 09:00 033 7 10.0
2020-Oct-25 08:00 026 7 10.0
2020-Oct-25 07:47 024 7 10.0
2020-Oct-25 07:31 005 6 10.0
2020-Oct-25 07:17 005 6 10.0
2020-Oct-25 07:01 022 9 10.6
2020-Oct-25 06:47 010 8 10.6
2020-Oct-25 06:31 025 6 10.6
2020-Oct-25 06:15 036 11 10.6
2020-Oct-25 06:01 360 7 10.6
2020-Oct-25 05:46 030 7 10.6
2020-Oct-25 05:31 360 9 10.6
2020-Oct-25 05:16 360 9 gusting 15 10.6
2020-Oct-25 05:00 035 8 gusting 16 10.6
2020-Oct-25 04:46 355 12 gusting 20 11.1
2020-Oct-25 04:31 017 8 gusting 19 11.1
2020-Oct-25 04:15 341 13 gusting 19 11.1
2020-Oct-25 04:01 013 10 gusting 17 11.7
2020-Oct-25 03:45 005 11 gusting 19 11.7
2020-Oct-25 03:30 355 11 gusting 16 11.7
2020-Oct-25 03:15 360 11 gusting 18 11.7
2020-Oct-25 03:00 340 11 gusting 17 12.2
2020-Oct-25 02:45 346 11 gusting 19 12.8
2020-Oct-25 02:30 331 10 gusting 16 13.3
2020-Oct-25 02:15 026 7 gusting 17 13.9
2020-Oct-25 02:00 023 8 gusting 20 14.4
2020-Oct-25 01:45 360 8 gusting 17 14.4
2020-Oct-25 01:30 011 8 gusting 21 15.0
2020-Oct-25 01:17 315 6 gusting 17 15.0
2020-Oct-25 01:02 336 6 gusting 19 15.0
2020-Oct-25 00:47 360 7 gusting 16 15.6
2020-Oct-25 00:33 346 6 gusting 13 16.1
2020-Oct-25 00:17 273 2 gusting 6 17.2
2020-Oct-25 00:02 219 16.7
2020-Oct-24 23:46 264 0 gusting 2 16.7
2020-Oct-24 23:31 231 16.7
2020-Oct-24 23:17 184 16.7
2020-Oct-24 23:02 261 16.7
2020-Oct-24 22:47 201 16.7
2020-Oct-24 22:32 219 16.7
2020-Oct-24 22:16 203 16.7
2020-Oct-24 22:03 226 0 gusting 2 16.7
2020-Oct-24 21:46 206 0 gusting 3 16.7
2020-Oct-24 21:31 202 0 gusting 4 16.7
2020-Oct-24 21:16 200 0 gusting 3 16.7
2020-Oct-24 21:01 169 0 gusting 2 17.2
2020-Oct-24 20:47 267 0 gusting 7 17.2
2020-Oct-24 20:31 248 1 gusting 3 17.8
2020-Oct-24 20:17 188 1 gusting 5 18.3
2020-Oct-24 20:00 289 0 gusting 6 18.9
2020-Oct-24 19:46 225 1 gusting 4 18.9
2020-Oct-24 19:31 301 2 gusting 6 18.3
2020-Oct-24 19:16 244 2 gusting 7 18.3
2020-Oct-24 19:00 290 1 gusting 7 18.3
2020-Oct-24 18:46 242 0 gusting 3 17.8
2020-Oct-24 18:31 279 1 gusting 4 17.8
2020-Oct-24 18:16 276 2 gusting 6 18.3
2020-Oct-24 18:01 226 1 gusting 6 18.9
2020-Oct-24 17:46 242 0 gusting 5 19.4
2020-Oct-24 17:30 322 2 gusting 8 19.4
2020-Oct-24 17:16 217 2 gusting 6 19.4
2020-Oct-24 17:01 218 2 gusting 6 20.0
2020-Oct-24 16:45 194 1 gusting 5 20.0
2020-Oct-24 16:31 252 1 gusting 7 20.6
2020-Oct-24 16:16 345 1 gusting 5 20.0
2020-Oct-24 16:00 284 3 gusting 7 20.0
2020-Oct-24 15:45 284 19.4
2020-Oct-24 15:30 168 18.9
2020-Oct-24 15:15 254 1 gusting 3 18.9
2020-Oct-24 15:00 230 0 gusting 3 17.8
2020-Oct-24 14:45 201 1 gusting 6 17.2
2020-Oct-24 14:33 092 16.7
2020-Oct-24 14:18 184 0 gusting 2 16.1
2020-Oct-24 14:01 172 16.1
2020-Oct-24 13:46 159 0 gusting 3 15.6
2020-Oct-24 13:31 195 15.0
2020-Oct-24 13:16 230 0 gusting 5 14.4
2020-Oct-24 13:01 231 14.4
2020-Oct-24 12:46 250 14.4
2020-Oct-24 12:30 243 14.4
2020-Oct-24 12:15 242 0 gusting 3 13.9
2020-Oct-24 12:00 242 0 gusting 1 13.9
2020-Oct-24 11:46 203 13.9
2020-Oct-24 11:31 203 13.9
2020-Oct-24 11:15 203 13.9
2020-Oct-24 11:00 178 0 gusting 1 13.9
2020-Oct-24 10:45 190 13.9
2020-Oct-24 10:31 190 13.9
2020-Oct-24 10:15 190 13.9
2020-Oct-24 10:00 190 13.9
2020-Oct-24 09:45 190 13.9
2020-Oct-24 09:30 190 13.9
2020-Oct-24 09:15 190 13.9
2020-Oct-24 09:00 239 13.9
2020-Oct-24 08:45 239 13.9
2020-Oct-24 08:30 239 13.9
2020-Oct-24 08:15 169 13.9
2020-Oct-24 08:00 111 13.9
2020-Oct-24 07:45 096 13.9
2020-Oct-24 07:30 096 13.9
2020-Oct-24 07:15 096 13.9
2020-Oct-24 07:00 096 13.9
2020-Oct-24 06:47 096 13.9
2020-Oct-24 06:33 096 13.9
2020-Oct-24 06:17 096 13.9
2020-Oct-24 06:01 096 14.4
2020-Oct-24 05:46 096 13.9
2020-Oct-24 05:31 096 14.4
2020-Oct-24 05:17 096 14.4
2020-Oct-24 05:02 096 14.4
2020-Oct-24 04:46 096 14.4
2020-Oct-24 04:31 096 14.4
2020-Oct-24 04:16 096 14.4
2020-Oct-24 04:00 104 14.4
2020-Oct-24 03:46 196 0 gusting 3 14.4
2020-Oct-24 03:31 086 14.4
2020-Oct-24 03:16 086 14.4
2020-Oct-24 03:01 086 14.4